createdAt,value
2023-05-21T00:00:10.766Z,5.37
2023-05-21T00:02:43.020Z,4.87
2023-05-21T00:05:15.318Z,5.47
2023-05-21T00:07:44.113Z,4.73
2023-05-21T00:10:12.964Z,5.87
2023-05-21T00:12:41.909Z,5.70
2023-05-21T00:15:11.638Z,5.57
2023-05-21T00:17:41.912Z,6.20
2023-05-21T00:20:10.810Z,5.47
2023-05-21T00:22:40.321Z,5.43
2023-05-21T00:25:09.647Z,5.40
2023-05-21T00:27:38.091Z,5.40
2023-05-21T00:30:09.075Z,6.00
2023-05-21T00:32:38.082Z,5.57
2023-05-21T00:35:09.971Z,5.23
2023-05-21T00:37:38.702Z,5.10
2023-05-21T00:40:11.760Z,4.80
2023-05-21T00:42:41.256Z,5.13
2023-05-21T00:45:10.664Z,4.87
2023-05-21T00:47:39.381Z,4.70
2023-05-21T00:50:11.261Z,4.83
2023-05-21T00:52:42.604Z,4.67
2023-05-21T00:55:12.064Z,4.70
2023-05-21T00:57:42.562Z,4.77
2023-05-21T01:00:15.409Z,5.00
2023-05-21T01:02:44.365Z,4.73
2023-05-21T01:05:15.641Z,4.73
2023-05-21T01:07:44.474Z,4.60
2023-05-21T01:10:13.588Z,4.77
2023-05-21T01:12:44.975Z,5.03
2023-05-21T01:15:14.280Z,4.43
2023-05-21T01:17:46.176Z,5.33
2023-05-21T01:20:20.326Z,4.30
2023-05-21T01:22:54.511Z,4.23
2023-05-21T01:25:24.217Z,4.93
2023-05-21T01:27:52.958Z,5.13
2023-05-21T01:30:23.395Z,4.67
2023-05-21T01:33:01.182Z,4.50
2023-05-21T01:35:34.212Z,4.80
2023-05-21T01:38:13.492Z,4.73
2023-05-21T01:40:52.078Z,5.13
2023-05-21T01:43:22.748Z,4.90
2023-05-21T01:45:56.363Z,5.30
2023-05-21T01:48:26.588Z,5.20
2023-05-21T01:50:56.898Z,5.47
2023-05-21T01:53:26.849Z,5.00
2023-05-21T01:55:55.635Z,5.90
2023-05-21T01:58:24.356Z,4.87
2023-05-21T02:00:53.014Z,5.20
2023-05-21T02:03:22.033Z,5.43
2023-05-21T02:05:52.075Z,4.63
2023-05-21T02:08:23.461Z,5.30
2023-05-21T02:10:53.754Z,5.47
2023-05-21T02:13:25.800Z,4.83
2023-05-21T02:15:55.374Z,5.20
2023-05-21T02:18:26.453Z,5.70
2023-05-21T02:20:55.025Z,5.03
2023-05-21T02:23:23.577Z,5.33
2023-05-21T02:25:53.403Z,5.10
2023-05-21T02:28:22.277Z,5.50
2023-05-21T02:30:50.685Z,5.00
2023-05-21T02:33:20.326Z,5.00
2023-05-21T02:35:48.742Z,5.60
2023-05-21T02:38:19.511Z,5.53
2023-05-21T02:40:48.146Z,5.00
2023-05-21T02:43:18.143Z,5.20
2023-05-21T02:45:47.185Z,5.20
2023-05-21T02:48:16.263Z,5.67
2023-05-21T02:50:45.048Z,5.50
2023-05-21T02:53:13.393Z,5.80
2023-05-21T02:55:42.120Z,5.70
2023-05-21T02:58:13.471Z,5.90
2023-05-21T03:00:43.628Z,5.57
2023-05-21T03:03:12.949Z,6.00
2023-05-21T03:05:41.500Z,6.00
2023-05-21T03:08:09.860Z,6.40
2023-05-21T03:10:38.092Z,6.63
2023-05-21T03:13:09.489Z,6.33
2023-05-21T03:15:39.308Z,5.77
2023-05-21T03:18:09.598Z,6.00
2023-05-21T03:20:43.619Z,6.07
2023-05-21T03:23:14.215Z,7.03
2023-05-21T03:25:46.083Z,6.77
2023-05-21T03:28:15.070Z,6.17
2023-05-21T03:30:51.077Z,6.10
2023-05-21T03:33:48.462Z,5.73
2023-05-21T03:36:22.538Z,6.37
2023-05-21T03:38:50.934Z,7.10
2023-05-21T03:41:19.887Z,6.33
2023-05-21T03:43:52.416Z,6.40
2023-05-21T03:46:23.579Z,7.30
2023-05-21T03:49:07.268Z,6.60
2023-05-21T03:51:38.383Z,7.87
2023-05-21T03:54:07.085Z,6.67
2023-05-21T03:56:37.641Z,7.00
2023-05-21T03:59:06.044Z,6.87
2023-05-21T04:01:35.006Z,7.07
2023-05-21T04:04:05.955Z,6.07
2023-05-21T04:06:36.845Z,7.17
2023-05-21T04:09:06.107Z,7.03
2023-05-21T04:11:34.346Z,6.00
2023-05-21T04:14:02.919Z,6.80
2023-05-21T04:16:31.354Z,6.80
2023-05-21T04:18:59.896Z,6.20
2023-05-21T04:21:29.091Z,7.03
2023-05-21T04:24:00.911Z,7.03
2023-05-21T04:26:48.629Z,6.00
2023-05-21T04:29:18.257Z,6.40
2023-05-21T04:31:47.240Z,6.20
2023-05-21T04:34:17.896Z,6.30
2023-05-21T04:36:47.282Z,6.73
2023-05-21T04:39:17.733Z,6.97
2023-05-21T04:41:46.242Z,6.43
2023-05-21T04:44:15.424Z,7.27
2023-05-21T04:46:46.325Z,6.27
2023-05-21T04:49:15.391Z,7.03
2023-05-21T04:51:43.952Z,6.60
2023-05-21T04:54:12.450Z,6.73
2023-05-21T04:56:42.570Z,7.10
2023-05-21T04:59:11.200Z,6.93
2023-05-21T05:01:39.379Z,7.30
2023-05-21T05:04:07.942Z,7.30
2023-05-21T05:06:36.324Z,7.10
2023-05-21T05:09:04.885Z,8.47
2023-05-21T05:11:33.272Z,6.70
2023-05-21T05:14:02.928Z,6.93
2023-05-21T05:16:31.800Z,6.80
2023-05-21T05:19:01.048Z,7.50
2023-05-21T05:21:29.704Z,6.87
2023-05-21T05:23:58.104Z,7.70
2023-05-21T05:26:29.610Z,6.90
2023-05-21T05:28:58.327Z,7.00
2023-05-21T05:31:28.236Z,7.87
2023-05-21T05:33:56.768Z,7.30
2023-05-21T05:36:26.231Z,7.03
2023-05-21T05:38:54.910Z,7.80
2023-05-21T05:41:24.039Z,7.40
2023-05-21T05:43:52.382Z,7.37
2023-05-21T05:46:23.399Z,8.00
2023-05-21T05:48:54.188Z,7.13
2023-05-21T05:51:23.267Z,6.90
2023-05-21T05:53:52.575Z,6.80
2023-05-21T05:56:21.328Z,8.07
2023-05-21T05:58:49.599Z,8.00
2023-05-21T06:01:20.429Z,7.90
2023-05-21T06:03:48.801Z,8.13
2023-05-21T06:06:20.892Z,7.50
2023-05-21T06:08:49.448Z,8.80
2023-05-21T06:11:19.069Z,8.20
2023-05-21T06:13:47.664Z,7.50
2023-05-21T06:16:18.843Z,7.90
2023-05-21T06:18:47.595Z,7.70
2023-05-21T06:21:15.958Z,8.20
2023-05-21T06:23:45.673Z,7.43
2023-05-21T06:26:13.979Z,7.90
2023-05-21T06:28:42.584Z,7.60
2023-05-21T06:31:13.744Z,7.20
2023-05-21T06:33:43.835Z,8.00
2023-05-21T06:36:12.524Z,7.27
2023-05-21T06:38:42.665Z,8.03
2023-05-21T06:41:12.830Z,7.90
2023-05-21T06:43:51.229Z,7.83
2023-05-21T06:46:38.318Z,7.33
2023-05-21T06:49:09.487Z,8.60
2023-05-21T06:51:38.125Z,7.90
2023-05-21T06:54:07.095Z,7.70
2023-05-21T06:56:38.736Z,8.07
2023-05-21T06:59:07.085Z,7.77
2023-05-21T07:01:35.992Z,7.90
2023-05-21T07:04:04.560Z,7.50
2023-05-21T07:06:33.145Z,8.37
2023-05-21T07:09:01.485Z,7.30
2023-05-21T07:11:31.198Z,7.90
2023-05-21T07:14:03.933Z,7.43
2023-05-21T07:16:34.508Z,8.23
2023-05-21T07:19:03.856Z,8.30
2023-05-21T07:21:32.566Z,8.30
2023-05-21T07:24:00.970Z,7.20
2023-05-21T07:26:29.315Z,8.10
2023-05-21T07:28:57.805Z,8.50
2023-05-21T07:31:29.108Z,8.63
2023-05-21T07:33:57.351Z,8.13
2023-05-21T07:36:30.053Z,7.97
2023-05-21T07:38:58.679Z,8.67
2023-05-21T07:41:27.211Z,7.67
2023-05-21T07:43:55.930Z,8.07
2023-05-21T07:46:24.534Z,8.43
2023-05-21T07:48:57.714Z,8.27
2023-05-21T07:51:26.916Z,8.47
2023-05-21T07:53:56.282Z,7.90
2023-05-21T07:56:32.411Z,8.47
2023-05-21T07:59:01.312Z,9.40
2023-05-21T08:01:30.884Z,8.20
2023-05-21T08:04:05.768Z,9.10
2023-05-21T08:06:35.045Z,8.40
2023-05-21T08:09:03.361Z,9.20
2023-05-21T08:11:31.791Z,8.40
2023-05-21T08:14:01.106Z,7.80
2023-05-21T08:16:29.726Z,8.33
2023-05-21T08:18:58.133Z,7.60
2023-05-21T08:21:27.937Z,8.77
2023-05-21T08:23:57.266Z,7.50
2023-05-21T08:26:26.809Z,8.77
2023-05-21T08:28:55.227Z,7.97
2023-05-21T08:31:24.041Z,8.07
2023-05-21T08:33:56.432Z,8.57
2023-05-21T08:36:38.925Z,8.53
2023-05-21T08:39:16.893Z,8.40
2023-05-21T08:41:49.674Z,8.73
2023-05-21T08:44:22.763Z,8.40
2023-05-21T08:46:52.489Z,7.93
2023-05-21T08:49:27.854Z,9.00
2023-05-21T08:51:59.953Z,8.43
2023-05-21T08:54:29.339Z,8.97
2023-05-21T08:56:59.787Z,8.20
2023-05-21T08:59:28.322Z,8.30
2023-05-21T09:01:57.773Z,9.10
2023-05-21T09:04:33.923Z,8.93
2023-05-21T09:07:04.570Z,8.97
2023-05-21T09:10:10.053Z,9.77
2023-05-21T09:12:38.841Z,9.47
2023-05-21T09:15:08.866Z,9.60
2023-05-21T09:17:38.938Z,9.27
2023-05-21T09:20:26.910Z,9.87
2023-05-21T09:23:06.103Z,9.27
2023-05-21T09:25:34.659Z,9.60
2023-05-21T09:28:13.631Z,9.87
2023-05-21T09:30:46.901Z,9.73
2023-05-21T09:33:26.492Z,9.20
2023-05-21T09:35:54.969Z,9.60
2023-05-21T09:38:26.108Z,9.53
2023-05-21T09:40:57.433Z,8.90
2023-05-21T09:43:26.983Z,8.83
2023-05-21T09:46:00.477Z,9.20
2023-05-21T09:48:37.370Z,9.70
2023-05-21T09:51:13.840Z,8.33
2023-05-21T09:53:52.106Z,8.97
2023-05-21T09:56:25.352Z,9.20
2023-05-21T09:58:55.652Z,9.23
2023-05-21T10:01:25.084Z,8.73
2023-05-21T10:03:57.599Z,15.20
2023-05-21T10:06:27.944Z,10.00
2023-05-21T10:09:01.623Z,9.30
2023-05-21T10:11:33.282Z,9.30
2023-05-21T10:14:07.083Z,9.73
2023-05-21T10:16:37.852Z,9.37
2023-05-21T10:19:10.985Z,8.53
2023-05-21T10:21:40.774Z,8.83
2023-05-21T10:24:11.817Z,9.10
2023-05-21T10:26:42.248Z,7.83
2023-05-21T10:29:10.988Z,9.70
2023-05-21T10:31:40.636Z,9.57
2023-05-21T10:34:09.427Z,9.13
2023-05-21T10:36:39.164Z,9.23
2023-05-21T10:39:10.850Z,9.60
2023-05-21T10:41:48.956Z,10.67
2023-05-21T10:44:31.747Z,8.83
2023-05-21T10:47:52.846Z,8.67
2023-05-21T10:51:11.412Z,9.87
2023-05-21T10:54:07.159Z,9.87
2023-05-21T10:56:43.974Z,9.10
2023-05-21T10:59:23.021Z,8.20
2023-05-21T11:01:54.120Z,9.43
2023-05-21T11:04:28.045Z,8.80
2023-05-21T11:06:57.424Z,10.13
2023-05-21T11:09:25.991Z,10.47
2023-05-21T11:12:00.148Z,10.40
2023-05-21T11:14:35.394Z,9.63
2023-05-21T11:17:05.803Z,9.90
2023-05-21T11:19:38.004Z,10.60
2023-05-21T11:22:21.987Z,10.00
2023-05-21T11:24:51.507Z,9.30
2023-05-21T11:27:36.651Z,10.70
2023-05-21T11:30:08.233Z,10.00
2023-05-21T11:32:40.382Z,12.27
2023-05-21T11:35:10.557Z,10.57
2023-05-21T11:37:41.957Z,10.67
2023-05-21T11:40:26.796Z,11.03
2023-05-21T11:42:57.523Z,10.97
2023-05-21T11:45:32.205Z,10.23
2023-05-21T11:48:01.284Z,9.97
2023-05-21T11:50:33.930Z,9.73
2023-05-21T11:53:02.577Z,10.07
2023-05-21T11:55:32.079Z,11.13
2023-05-21T11:58:03.249Z,10.70
2023-05-21T12:00:31.861Z,11.20
2023-05-21T12:03:00.326Z,11.07
2023-05-21T12:05:28.727Z,11.17
2023-05-21T12:07:58.475Z,9.57
2023-05-21T12:10:28.240Z,11.73
2023-05-21T12:12:57.557Z,10.27
2023-05-21T12:15:29.092Z,10.70
2023-05-21T12:17:58.236Z,9.70
2023-05-21T12:20:30.175Z,10.80
2023-05-21T12:23:00.524Z,10.37
2023-05-21T12:25:30.073Z,9.43
2023-05-21T12:27:58.926Z,10.53
2023-05-21T12:30:29.767Z,8.77
2023-05-21T12:33:02.089Z,10.37
2023-05-21T12:35:32.416Z,9.47
2023-05-21T12:38:03.214Z,9.13
2023-05-21T12:40:39.276Z,9.20
2023-05-21T12:43:08.704Z,8.80
2023-05-21T12:45:40.576Z,9.40
2023-05-21T12:48:09.515Z,9.50
2023-05-21T12:50:42.399Z,9.60
2023-05-21T12:53:12.391Z,8.90
2023-05-21T12:55:41.166Z,9.57
2023-05-21T12:58:09.680Z,8.63
2023-05-21T13:00:39.497Z,8.90
2023-05-21T13:03:08.957Z,9.77
2023-05-21T13:05:41.404Z,9.30
2023-05-21T13:08:10.705Z,9.37
2023-05-21T13:10:39.385Z,9.30
2023-05-21T13:13:08.070Z,8.40
2023-05-21T13:15:36.336Z,8.10
2023-05-21T13:18:06.207Z,9.27
2023-05-21T13:20:34.626Z,9.20
2023-05-21T13:23:05.833Z,10.10
2023-05-21T13:25:35.519Z,9.00
2023-05-21T13:28:06.746Z,10.37
2023-05-21T13:30:35.397Z,8.90
2023-05-21T13:33:07.840Z,9.27
2023-05-21T13:35:36.401Z,10.53
2023-05-21T13:38:04.671Z,10.47
2023-05-21T13:40:33.335Z,9.17
2023-05-21T13:43:01.602Z,10.20
2023-05-21T13:45:30.001Z,9.77
2023-05-21T13:47:58.445Z,9.37
2023-05-21T13:50:28.452Z,8.73
2023-05-21T13:52:56.694Z,9.70
2023-05-21T13:55:24.946Z,8.47
2023-05-21T13:57:53.388Z,9.10
2023-05-21T14:00:22.057Z,9.50
2023-05-21T14:02:52.259Z,9.67
2023-05-21T14:05:20.833Z,9.50
2023-05-21T14:07:51.470Z,9.03
2023-05-21T14:10:20.548Z,8.90
2023-05-21T14:12:49.011Z,7.97
2023-05-21T14:15:17.591Z,8.40
2023-05-21T14:17:46.109Z,9.10
2023-05-21T14:20:14.602Z,8.80
2023-05-21T14:22:43.195Z,9.30
2023-05-21T14:25:12.874Z,8.10
2023-05-21T14:27:41.582Z,8.90
2023-05-21T14:30:12.656Z,8.70
2023-05-21T14:32:41.083Z,8.27
2023-05-21T14:35:11.238Z,9.30
2023-05-21T14:37:39.836Z,7.93
2023-05-21T14:40:10.416Z,8.40
2023-05-21T14:42:40.107Z,9.33
2023-05-21T14:45:18.584Z,8.97
2023-05-21T14:47:48.995Z,8.63
2023-05-21T14:50:19.000Z,9.00
2023-05-21T14:52:47.468Z,8.97
2023-05-21T14:55:16.996Z,8.57
2023-05-21T14:57:46.728Z,8.43
2023-05-21T15:00:16.262Z,7.50
2023-05-21T15:02:44.930Z,9.60
2023-05-21T15:05:13.604Z,8.13
2023-05-21T15:07:42.063Z,8.87
2023-05-21T15:10:11.598Z,20.67
2023-05-21T15:12:41.828Z,13.80
2023-05-21T15:15:13.568Z,11.30
2023-05-21T15:17:42.205Z,9.27
2023-05-21T15:20:11.792Z,9.80
2023-05-21T15:22:40.308Z,9.40
2023-05-21T15:25:09.681Z,9.20
2023-05-21T15:27:37.983Z,7.90
2023-05-21T15:30:08.294Z,8.87
2023-05-21T15:32:38.182Z,8.43
2023-05-21T15:35:07.701Z,8.33
2023-05-21T15:37:36.069Z,8.27
2023-05-21T15:40:05.209Z,8.63
2023-05-21T15:42:33.572Z,11.77
2023-05-21T15:45:02.068Z,8.00
2023-05-21T15:47:30.467Z,8.00
2023-05-21T15:50:00.548Z,8.63
2023-05-21T15:52:28.959Z,9.20
2023-05-21T15:54:57.448Z,13.33
2023-05-21T15:57:25.649Z,8.93
2023-05-21T15:59:54.099Z,12.17
2023-05-21T16:02:22.705Z,11.47
2023-05-21T16:04:52.216Z,13.47
2023-05-21T16:07:21.852Z,9.43
2023-05-21T16:09:50.379Z,7.77
2023-05-21T16:12:19.102Z,7.20
2023-05-21T16:14:50.249Z,7.80
2023-05-21T16:17:19.664Z,7.37
2023-05-21T16:19:48.393Z,6.67
2023-05-21T16:22:17.118Z,7.27
2023-05-21T16:24:47.227Z,6.63
2023-05-21T16:27:15.761Z,8.17
2023-05-21T16:29:44.319Z,6.90
2023-05-21T16:32:14.163Z,7.70
2023-05-21T16:34:42.629Z,7.93
2023-05-21T16:37:11.453Z,8.10
2023-05-21T16:39:40.358Z,6.97
2023-05-21T16:42:10.024Z,7.13
2023-05-21T16:44:39.516Z,7.87
2023-05-21T16:47:08.821Z,8.67
2023-05-21T16:49:36.973Z,7.77
2023-05-21T16:52:05.540Z,8.03
2023-05-21T16:54:34.957Z,8.07
2023-05-21T16:57:03.204Z,8.33
2023-05-21T16:59:32.855Z,8.53
2023-05-21T17:02:01.343Z,8.40
2023-05-21T17:04:30.356Z,8.37
2023-05-21T17:06:58.596Z,8.27
2023-05-21T17:09:27.085Z,8.50
2023-05-21T17:11:57.468Z,8.80
2023-05-21T17:14:34.457Z,9.00
2023-05-21T17:17:05.388Z,7.93
2023-05-21T17:19:33.768Z,8.37
2023-05-21T17:22:02.272Z,8.00
2023-05-21T17:24:30.900Z,8.83
2023-05-21T17:26:59.295Z,7.63
2023-05-21T17:29:27.556Z,8.43
2023-05-21T17:31:56.292Z,9.40
2023-05-21T17:34:29.506Z,9.73
2023-05-21T17:37:00.027Z,10.20
2023-05-21T17:39:28.251Z,9.80
2023-05-21T17:41:57.776Z,9.07
2023-05-21T17:44:26.351Z,9.30
2023-05-21T17:46:54.681Z,8.90
2023-05-21T17:49:23.114Z,7.67
2023-05-21T17:51:53.848Z,9.03
2023-05-21T17:54:22.470Z,8.60
2023-05-21T17:56:50.776Z,8.83
2023-05-21T17:59:19.512Z,9.00
2023-05-21T18:01:47.926Z,8.70
2023-05-21T18:04:16.461Z,9.67
2023-05-21T18:06:44.918Z,9.00
2023-05-21T18:09:16.006Z,10.63
2023-05-21T18:11:45.204Z,9.00
2023-05-21T18:14:13.760Z,8.60
2023-05-21T18:16:43.293Z,8.37
2023-05-21T18:19:11.929Z,9.30
2023-05-21T18:21:40.560Z,10.30
2023-05-21T18:24:09.542Z,8.10
2023-05-21T18:26:39.078Z,8.30
2023-05-21T18:29:07.432Z,8.90
2023-05-21T18:31:35.742Z,9.83
2023-05-21T18:34:04.072Z,9.50
2023-05-21T18:36:38.484Z,9.53
2023-05-21T18:39:07.764Z,9.63
2023-05-21T18:41:37.640Z,9.83
2023-05-21T18:44:07.508Z,9.60
2023-05-21T18:46:36.319Z,9.33
2023-05-21T18:49:04.725Z,9.50
2023-05-21T18:51:33.064Z,9.40
2023-05-21T18:54:01.265Z,9.30
2023-05-21T18:56:29.630Z,9.43
2023-05-21T18:58:57.910Z,9.07
2023-05-21T19:01:28.090Z,10.10
2023-05-21T19:03:56.500Z,9.50
2023-05-21T19:06:25.588Z,10.57
2023-05-21T19:08:54.214Z,9.60
2023-05-21T19:11:23.609Z,9.67
2023-05-21T19:13:52.169Z,9.83
2023-05-21T19:16:20.588Z,9.47
2023-05-21T19:18:50.363Z,10.33
2023-05-21T19:21:18.966Z,9.03
2023-05-21T19:23:53.193Z,10.00
2023-05-21T19:26:22.858Z,9.30
2023-05-21T19:28:53.972Z,9.77
2023-05-21T19:31:23.523Z,10.20
2023-05-21T19:33:54.006Z,12.27
2023-05-21T19:36:22.741Z,11.97
2023-05-21T19:38:51.920Z,10.33
2023-05-21T19:41:21.607Z,9.97
2023-05-21T19:43:49.997Z,10.60
2023-05-21T19:46:20.474Z,10.17
2023-05-21T19:48:49.776Z,12.07
2023-05-21T19:51:19.782Z,10.63
2023-05-21T19:53:48.184Z,8.87
2023-05-21T19:56:16.952Z,8.93
2023-05-21T19:58:47.174Z,9.23
2023-05-21T20:01:17.892Z,9.10
2023-05-21T20:03:46.421Z,9.30
2023-05-21T20:06:16.915Z,9.20
2023-05-21T20:08:46.588Z,7.83
2023-05-21T20:11:14.914Z,8.27
2023-05-21T20:13:48.456Z,8.73
2023-05-21T20:16:18.300Z,8.37
2023-05-21T20:18:47.344Z,9.03
2023-05-21T20:21:17.568Z,9.40
2023-05-21T20:23:47.613Z,9.00
2023-05-21T20:26:17.258Z,8.80
2023-05-21T20:28:45.870Z,8.90
2023-05-21T20:31:14.766Z,9.40
2023-05-21T20:33:43.264Z,10.23
2023-05-21T20:36:13.584Z,9.03
2023-05-21T20:38:42.163Z,9.70
2023-05-21T20:41:11.892Z,9.00
2023-05-21T20:43:40.291Z,10.20
2023-05-21T20:46:08.607Z,9.20
2023-05-21T20:48:37.847Z,10.47
2023-05-21T20:51:07.259Z,9.90
2023-05-21T20:53:35.627Z,10.03
2023-05-21T20:56:08.368Z,9.57
2023-05-21T20:58:39.976Z,10.93
2023-05-21T21:01:10.713Z,12.20
2023-05-21T21:03:41.425Z,10.80
2023-05-21T21:06:10.023Z,11.33
2023-05-21T21:08:40.367Z,11.47
2023-05-21T21:11:09.442Z,11.07
2023-05-21T21:13:39.826Z,11.80
2023-05-21T21:16:10.136Z,11.50
2023-05-21T21:18:38.515Z,10.70
2023-05-21T21:21:07.560Z,11.43
2023-05-21T21:23:35.896Z,12.87
2023-05-21T21:26:04.210Z,13.40
2023-05-21T21:28:32.447Z,13.83
2023-05-21T21:31:02.562Z,13.20
2023-05-21T21:33:31.271Z,13.13
2023-05-21T21:36:02.058Z,14.13
2023-05-21T21:38:30.804Z,12.70
2023-05-21T21:40:59.178Z,13.80
2023-05-21T21:43:27.577Z,12.70
2023-05-21T21:45:56.265Z,13.90
2023-05-21T21:48:27.181Z,14.00
2023-05-21T21:50:55.872Z,13.07
2023-05-21T21:53:25.405Z,15.80
2023-05-21T21:55:55.159Z,14.17
2023-05-21T21:58:23.541Z,15.20
2023-05-21T22:00:51.988Z,15.17
2023-05-21T22:03:20.809Z,13.97
2023-05-21T22:05:51.713Z,15.83
2023-05-21T22:08:20.098Z,15.83
2023-05-21T22:10:48.596Z,15.50
2023-05-21T22:13:17.365Z,17.20
2023-05-21T22:15:46.068Z,17.90
2023-05-21T22:18:28.242Z,16.90
2023-05-21T22:21:09.218Z,17.80
2023-05-21T22:23:38.508Z,18.93
2023-05-21T22:26:07.281Z,17.00
2023-05-21T22:28:35.513Z,18.67
2023-05-21T22:31:03.988Z,19.43
2023-05-21T22:33:32.535Z,18.53
2023-05-21T22:36:00.907Z,19.73
2023-05-21T22:38:30.563Z,19.40
2023-05-21T22:40:59.309Z,19.83
2023-05-21T22:43:27.665Z,21.30
2023-05-21T22:45:56.379Z,20.57
2023-05-21T22:48:24.862Z,19.87
2023-05-21T22:50:54.785Z,21.50
2023-05-21T22:53:23.653Z,19.93
2023-05-21T22:55:53.457Z,22.23
2023-05-21T22:58:22.350Z,21.80
2023-05-21T23:00:50.936Z,22.63
2023-05-21T23:03:19.441Z,24.07
2023-05-21T23:05:48.132Z,21.60
2023-05-21T23:08:16.586Z,21.70
2023-05-21T23:10:45.183Z,23.23
2023-05-21T23:13:14.992Z,25.30
2023-05-21T23:15:44.142Z,25.03
2023-05-21T23:18:12.758Z,23.57
2023-05-21T23:20:41.962Z,24.30
2023-05-21T23:23:10.939Z,24.70
2023-05-21T23:25:39.382Z,24.13
2023-05-21T23:28:07.984Z,23.47
2023-05-21T23:30:38.989Z,24.40
2023-05-21T23:33:07.500Z,25.40
2023-05-21T23:35:37.468Z,25.40
2023-05-21T23:38:05.708Z,24.00
2023-05-21T23:40:33.951Z,26.30
2023-05-21T23:43:02.332Z,26.47
2023-05-21T23:45:31.828Z,26.37
2023-05-21T23:48:01.544Z,25.10
2023-05-21T23:50:30.375Z,24.57
2023-05-21T23:52:59.343Z,24.23
2023-05-21T23:55:27.819Z,26.47
2023-05-21T23:57:56.099Z,27.03
